Time;durP1;ratioP1;P1;durP2;ratioP2;P2;SDS_P1;SDS_P2;PMS_P1;PMS_P2;Temp;Humidity;BMP_temperature;BMP_pressure;BME280_temperature;BME280_humidity;BME280_pressure;Samples;Min_cycle;Max_cycle;Signal;HPM_P1;HPM_P2
2023/12/08 00:01:09;;;;;;;0.20;0.10;;;;;;;;;;4949219;28;20410;-83
2023/12/08 00:03:41;;;;;;;0.20;0.00;;;;;;;;;;4947143;28;20039;-81
2023/12/08 00:06:12;;;;;;;0.32;0.32;;;;;;;;;;4931194;29;20082;-82
2023/12/08 00:08:38;;;;;;;0.20;0.10;;;;;;;;;;4946772;28;20039;-83
2023/12/08 00:11:08;;;;;;;0.20;0.10;;;;;;;;;;4949813;28;20038;-82
2023/12/08 00:13:46;;;;;;;0.20;0.10;;;;;;;;;;4948349;28;20051;-82
2023/12/08 00:16:15;;;;;;;0.20;0.10;;;;;;;;;;4947529;29;20175;-81
2023/12/08 00:18:44;;;;;;;0.20;0.10;;;;;;;;;;4945459;29;20130;-81
2023/12/08 00:21:10;;;;;;;0.20;0.10;;;;;;;;;;4944788;29;20447;-82
2023/12/08 00:23:42;;;;;;;0.20;0.10;;;;;;;;;;4933820;29;20396;-81
2023/12/08 00:26:12;;;;;;;0.20;0.10;;;;;;;;;;4945669;28;20039;-83
2023/12/08 00:28:46;;;;;;;0.20;0.10;;;;;;;;;;4950597;28;20050;-82
2023/12/08 00:31:14;;;;;;;0.20;0.05;;;;;;;;;;4946945;28;20122;-81
2023/12/08 00:33:41;;;;;;;0.20;0.10;;;;;;;;;;4947968;29;20110;-84
2023/12/08 00:36:12;;;;;;;0.20;0.10;;;;;;;;;;4947444;29;20078;-82
2023/12/08 00:38:41;;;;;;;0.20;0.10;;;;;;;;;;4943051;29;20043;-80
2023/12/08 00:41:08;;;;;;;0.20;0.10;;;;;;;;;;4946289;28;20087;-80
2023/12/08 00:43:34;;;;;;;0.20;0.00;;;;;;;;;;4948483;29;20492;-81
2023/12/08 00:46:00;;;;;;;0.20;0.10;;;;;;;;;;4930821;29;20039;-82
2023/12/08 00:48:26;;;;;;;0.38;0.30;;;;;;;;;;4947455;28;20503;-82
2023/12/08 00:50:52;;;;;;;0.57;0.32;;;;;;;;;;4930049;29;20054;-81
2023/12/08 00:53:18;;;;;;;0.20;0.10;;;;;;;;;;4931114;28;20047;-83
2023/12/08 00:55:44;;;;;;;0.20;0.10;;;;;;;;;;4944716;28;20047;-82
2023/12/08 00:58:12;;;;;;;0.20;0.20;;;;;;;;;;4949293;28;20039;-83
2023/12/08 01:00:38;;;;;;;0.20;0.10;;;;;;;;;;4947169;28;20039;-80
2023/12/08 01:03:04;;;;;;;0.20;0.10;;;;;;;;;;4990986;23;20527;-84
2023/12/08 01:05:30;;;;;;;0.20;0.10;;;;;;;;;;4935302;28;20066;-84
2023/12/08 01:07:56;;;;;;;0.20;0.20;;;;;;;;;;4935006;28;21402;-82
2023/12/08 01:10:22;;;;;;;0.20;0.10;;;;;;;;;;4952283;28;21640;-84
2023/12/08 01:12:48;;;;;;;0.20;0.10;;;;;;;;;;4935166;28;20042;-84
2023/12/08 01:15:14;;;;;;;0.20;0.10;;;;;;;;;;4953513;28;20467;-86
2023/12/08 01:17:40;;;;;;;0.20;0.00;;;;;;;;;;4938118;28;20451;-85
2023/12/08 01:20:07;;;;;;;0.20;0.03;;;;;;;;;;4953866;28;20566;-87
2023/12/08 01:22:33;;;;;;;0.20;0.10;;;;;;;;;;4935044;28;20065;-86
2023/12/08 01:25:00;;;;;;;0.20;0.05;;;;;;;;;;4936938;28;20078;-86
2023/12/08 01:27:26;;;;;;;0.20;0.10;;;;;;;;;;4954921;28;20046;-86
2023/12/08 01:29:52;;;;;;;0.40;0.32;;;;;;;;;;4950232;28;20462;-85
2023/12/08 01:32:18;;;;;;;0.20;0.00;;;;;;;;;;4947500;28;20046;-82
2023/12/08 01:34:44;;;;;;;0.20;0.10;;;;;;;;;;4971033;28;20595;-84
2023/12/08 01:37:10;;;;;;;0.20;0.10;;;;;;;;;;4952803;28;20526;-80
2023/12/08 01:39:36;;;;;;;0.20;0.10;;;;;;;;;;4970860;28;20122;-85
2023/12/08 01:42:03;;;;;;;0.20;0.10;;;;;;;;;;4955044;28;20049;-83
2023/12/08 01:44:29;;;;;;;0.63;0.63;;;;;;;;;;4951119;28;20050;-86
2023/12/08 01:46:55;;;;;;;0.20;0.10;;;;;;;;;;4949718;28;20168;-84
2023/12/08 01:49:21;;;;;;;0.20;0.00;;;;;;;;;;4951093;28;20046;-84
2023/12/08 01:51:47;;;;;;;0.47;0.40;;;;;;;;;;4953710;28;20126;-84
2023/12/08 01:54:14;;;;;;;0.20;0.10;;;;;;;;;;4954067;28;21208;-86
2023/12/08 01:56:40;;;;;;;0.20;0.10;;;;;;;;;;4954606;28;20035;-85
2023/12/08 01:59:07;;;;;;;0.20;0.10;;;;;;;;;;4952668;28;20039;-85
2023/12/08 02:01:34;;;;;;;0.20;0.10;;;;;;;;;;4934814;28;20121;-86
2023/12/08 02:04:00;;;;;;;0.20;0.10;;;;;;;;;;4968629;28;20076;-85
2023/12/08 02:06:26;;;;;;;0.20;0.10;;;;;;;;;;4966847;28;20043;-85
2023/12/08 02:08:52;;;;;;;0.20;0.08;;;;;;;;;;4950414;28;20039;-85
2023/12/08 02:11:18;;;;;;;0.20;0.10;;;;;;;;;;4966890;28;20046;-85
2023/12/08 02:13:45;;;;;;;0.20;0.00;;;;;;;;;;4952451;28;20061;-85
2023/12/08 02:16:14;;;;;;;0.20;0.10;;;;;;;;;;4951078;28;20050;-85
2023/12/08 02:18:41;;;;;;;0.20;0.10;;;;;;;;;;4930164;28;20034;-85
2023/12/08 02:21:10;;;;;;;1.17;0.63;;;;;;;;;;4958797;28;20054;-84
2023/12/08 02:23:36;;;;;;;0.20;0.10;;;;;;;;;;4934847;28;20118;-80
2023/12/08 02:26:05;;;;;;;0.20;0.10;;;;;;;;;;4970715;28;20120;-84
2023/12/08 02:28:32;;;;;;;0.20;0.10;;;;;;;;;;4952034;28;20070;-85
2023/12/08 02:30:59;;;;;;;1.65;0.90;;;;;;;;;;4948950;28;20062;-85
2023/12/08 02:33:36;;;;;;;0.20;0.10;;;;;;;;;;4939629;28;20551;-87
2023/12/08 02:36:04;;;;;;;0.63;0.40;;;;;;;;;;4967190;28;20038;-83
2023/12/08 02:38:32;;;;;;;0.20;0.10;;;;;;;;;;4933437;28;20058;-85
2023/12/08 02:40:58;;;;;;;0.73;0.22;;;;;;;;;;4937597;28;20043;-86
2023/12/08 02:43:24;;;;;;;0.45;0.40;;;;;;;;;;4943073;28;20101;-84
2023/12/08 02:45:51;;;;;;;0.20;0.00;;;;;;;;;;4967927;28;20052;-84
2023/12/08 02:48:17;;;;;;;0.20;0.10;;;;;;;;;;4971562;28;20043;-84
2023/12/08 02:50:43;;;;;;;0.20;0.03;;;;;;;;;;4976636;28;20518;-83
2023/12/08 02:53:09;;;;;;;0.20;0.10;;;;;;;;;;4955233;28;20507;-85
2023/12/08 02:55:35;;;;;;;0.20;0.10;;;;;;;;;;4955855;28;20066;-82
2023/12/08 02:58:01;;;;;;;0.20;0.03;;;;;;;;;;4954702;28;20117;-85
2023/12/08 03:00:27;;;;;;;0.20;0.10;;;;;;;;;;4956295;28;20371;-84
2023/12/08 03:02:53;;;;;;;0.73;0.63;;;;;;;;;;4955360;28;20046;-83
2023/12/08 03:05:19;;;;;;;0.20;0.10;;;;;;;;;;4949164;28;20069;-85
2023/12/08 03:07:45;;;;;;;0.32;0.20;;;;;;;;;;4935335;28;20057;-85
2023/12/08 03:10:13;;;;;;;0.20;0.00;;;;;;;;;;4954621;28;20046;-85
2023/12/08 03:12:39;;;;;;;0.20;0.10;;;;;;;;;;4951371;28;20136;-83
2023/12/08 03:15:05;;;;;;;0.20;0.10;;;;;;;;;;4954728;28;20127;-84
2023/12/08 03:17:31;;;;;;;0.20;0.10;;;;;;;;;;4952363;28;20038;-85
2023/12/08 03:19:57;;;;;;;0.20;0.10;;;;;;;;;;4937585;28;20053;-85
2023/12/08 03:22:23;;;;;;;0.20;0.10;;;;;;;;;;4934774;28;20067;-85
2023/12/08 03:24:49;;;;;;;0.20;0.10;;;;;;;;;;4969440;28;20506;-84
2023/12/08 03:27:15;;;;;;;0.20;0.10;;;;;;;;;;4949763;28;20121;-83
2023/12/08 03:29:41;;;;;;;0.30;0.25;;;;;;;;;;4936249;28;20050;-83
2023/12/08 03:32:08;;;;;;;0.20;0.10;;;;;;;;;;4950352;28;20455;-84
2023/12/08 03:34:34;;;;;;;0.20;0.10;;;;;;;;;;4953614;28;20046;-84
2023/12/08 03:37:00;;;;;;;0.20;0.10;;;;;;;;;;4950515;28;20039;-84
2023/12/08 03:39:26;;;;;;;0.20;0.10;;;;;;;;;;4969724;28;20145;-83
2023/12/08 03:41:52;;;;;;;0.25;0.25;;;;;;;;;;4937904;28;20097;-83
2023/12/08 03:44:18;;;;;;;0.20;0.10;;;;;;;;;;4949455;28;20435;-84
2023/12/08 03:46:44;;;;;;;0.20;0.00;;;;;;;;;;4969200;28;20053;-85
2023/12/08 03:49:10;;;;;;;0.20;0.10;;;;;;;;;;4959650;28;20081;-85
2023/12/08 03:51:36;;;;;;;0.20;0.00;;;;;;;;;;4956218;28;20047;-82
2023/12/08 03:54:03;;;;;;;1.15;1.05;;;;;;;;;;4957642;28;20105;-83
2023/12/08 03:56:29;;;;;;;0.20;0.10;;;;;;;;;;4958979;28;20049;-85
2023/12/08 03:58:55;;;;;;;0.20;0.10;;;;;;;;;;4971185;28;20247;-84
2023/12/08 04:01:21;;;;;;;0.20;0.08;;;;;;;;;;4948659;28;20106;-84
2023/12/08 04:03:47;;;;;;;0.20;0.20;;;;;;;;;;4976893;28;20338;-85
2023/12/08 04:06:13;;;;;;;0.20;0.10;;;;;;;;;;4961105;28;20093;-83
2023/12/08 04:08:39;;;;;;;0.20;0.10;;;;;;;;;;4961726;28;20145;-86
2023/12/08 04:11:06;;;;;;;0.20;0.10;;;;;;;;;;4941499;28;20042;-84
2023/12/08 04:13:32;;;;;;;0.20;0.10;;;;;;;;;;4959016;28;20062;-85
2023/12/08 04:15:58;;;;;;;0.20;0.10;;;;;;;;;;4954022;28;20043;-83
2023/12/08 04:18:24;;;;;;;0.20;0.10;;;;;;;;;;4951416;28;20073;-83
2023/12/08 04:20:50;;;;;;;0.20;0.10;;;;;;;;;;4951130;28;20467;-83
2023/12/08 04:23:16;;;;;;;0.20;0.10;;;;;;;;;;4947707;28;20524;-83
2023/12/08 04:25:42;;;;;;;0.73;0.63;;;;;;;;;;4960705;28;20089;-83
2023/12/08 04:28:09;;;;;;;0.20;0.10;;;;;;;;;;4949528;28;20116;-83
2023/12/08 04:30:35;;;;;;;0.20;0.20;;;;;;;;;;4935591;28;20542;-85
2023/12/08 04:33:01;;;;;;;0.20;0.10;;;;;;;;;;4962440;28;20055;-85
2023/12/08 04:35:27;;;;;;;0.20;0.10;;;;;;;;;;4950175;28;20038;-84
2023/12/08 04:37:53;;;;;;;0.20;0.10;;;;;;;;;;4944920;28;20045;-84
2023/12/08 04:40:19;;;;;;;0.20;0.10;;;;;;;;;;4948434;28;20041;-84
2023/12/08 04:42:45;;;;;;;0.20;0.10;;;;;;;;;;4943785;28;20550;-83
2023/12/08 04:45:13;;;;;;;0.20;0.10;;;;;;;;;;4961660;28;20045;-82
2023/12/08 04:47:39;;;;;;;0.20;0.10;;;;;;;;;;4931953;28;21583;-84
2023/12/08 04:50:06;;;;;;;0.20;0.10;;;;;;;;;;4945506;28;20059;-84
2023/12/08 04:52:32;;;;;;;0.20;0.00;;;;;;;;;;4949935;28;20043;-84
2023/12/08 04:54:58;;;;;;;0.30;0.30;;;;;;;;;;4952804;28;20125;-84
2023/12/08 04:57:24;;;;;;;0.20;0.10;;;;;;;;;;4950907;28;20123;-82
2023/12/08 04:59:50;;;;;;;0.68;0.40;;;;;;;;;;4948045;28;20412;-83
2023/12/08 05:02:17;;;;;;;0.20;0.10;;;;;;;;;;4949559;28;20671;-83
2023/12/08 05:04:42;;;;;;;0.20;0.10;;;;;;;;;;4951799;28;20064;-83
2023/12/08 05:07:09;;;;;;;0.20;0.10;;;;;;;;;;4950036;28;20055;-84
2023/12/08 05:09:35;;;;;;;0.20;0.05;;;;;;;;;;4948138;28;20035;-83
2023/12/08 05:12:01;;;;;;;0.20;0.10;;;;;;;;;;4947087;28;20162;-81
2023/12/08 05:14:27;;;;;;;0.20;0.10;;;;;;;;;;4949652;28;20093;-81
2023/12/08 05:16:52;;;;;;;0.20;0.10;;;;;;;;;;4963931;28;20121;-85
2023/12/08 05:19:18;;;;;;;0.20;0.10;;;;;;;;;;4950365;28;20047;-84
2023/12/08 05:21:45;;;;;;;0.30;0.30;;;;;;;;;;4939931;28;20053;-83
2023/12/08 05:24:11;;;;;;;0.20;0.10;;;;;;;;;;4955670;28;20045;-82
2023/12/08 05:26:37;;;;;;;0.20;0.10;;;;;;;;;;4949293;28;20517;-83
2023/12/08 05:29:03;;;;;;;0.20;0.10;;;;;;;;;;4929602;28;20460;-83
2023/12/08 05:31:29;;;;;;;0.20;0.10;;;;;;;;;;4947685;28;20117;-83
2023/12/08 05:33:55;;;;;;;0.20;0.10;;;;;;;;;;4946776;28;20094;-84
2023/12/08 05:36:21;;;;;;;0.20;0.10;;;;;;;;;;4945077;28;20034;-82
2023/12/08 05:38:47;;;;;;;0.20;0.05;;;;;;;;;;4950672;28;20042;-85
2023/12/08 05:41:13;;;;;;;0.20;0.00;;;;;;;;;;4948915;28;20066;-85
2023/12/08 05:43:39;;;;;;;0.20;0.10;;;;;;;;;;4950340;28;20042;-82
2023/12/08 05:46:05;;;;;;;0.20;0.10;;;;;;;;;;4961541;28;20184;-83
2023/12/08 05:48:31;;;;;;;0.40;0.28;;;;;;;;;;4946143;28;20046;-84
2023/12/08 05:50:57;;;;;;;0.20;0.10;;;;;;;;;;4931270;28;20675;-84
2023/12/08 05:53:23;;;;;;;0.28;0.15;;;;;;;;;;4929811;28;20046;-83
2023/12/08 05:55:49;;;;;;;0.68;0.35;;;;;;;;;;4975697;28;20069;-85
2023/12/08 05:58:15;;;;;;;0.20;0.10;;;;;;;;;;4946276;28;20054;-85
2023/12/08 06:00:41;;;;;;;0.20;0.10;;;;;;;;;;4932982;28;20063;-84
2023/12/08 06:03:08;;;;;;;0.20;0.10;;;;;;;;;;4933661;28;20127;-85
2023/12/08 06:05:34;;;;;;;0.20;0.10;;;;;;;;;;4952091;28;20551;-85
2023/12/08 06:08:00;;;;;;;0.20;0.10;;;;;;;;;;4947275;28;20503;-85
2023/12/08 06:10:26;;;;;;;0.30;0.25;;;;;;;;;;4941246;28;20039;-86
2023/12/08 06:12:52;;;;;;;0.20;0.10;;;;;;;;;;4946594;28;20054;-84
2023/12/08 06:15:18;;;;;;;0.20;0.00;;;;;;;;;;4929130;28;20049;-87
2023/12/08 06:17:44;;;;;;;0.50;0.45;;;;;;;;;;4940245;28;20081;-86
2023/12/08 06:20:11;;;;;;;0.25;0.20;;;;;;;;;;4943129;28;20089;-86
2023/12/08 06:22:37;;;;;;;0.77;0.52;;;;;;;;;;4947853;28;20046;-84
2023/12/08 06:25:03;;;;;;;0.20;0.10;;;;;;;;;;4959262;28;20050;-86
2023/12/08 06:27:29;;;;;;;0.20;0.10;;;;;;;;;;4961945;28;20042;-88
2023/12/08 06:29:55;;;;;;;0.20;0.10;;;;;;;;;;4960643;28;20060;-87
2023/12/08 06:32:21;;;;;;;0.20;0.10;;;;;;;;;;4930338;28;20048;-87
2023/12/08 06:34:47;;;;;;;0.20;0.10;;;;;;;;;;4929920;28;20637;-86
2023/12/08 06:37:13;;;;;;;0.20;0.10;;;;;;;;;;4949805;28;20050;-86
2023/12/08 06:39:40;;;;;;;0.20;0.10;;;;;;;;;;4932307;28;20430;-85
2023/12/08 06:42:06;;;;;;;0.20;0.10;;;;;;;;;;4945604;28;20054;-86
2023/12/08 06:44:32;;;;;;;0.20;0.00;;;;;;;;;;4965730;28;20519;-86
2023/12/08 06:46:58;;;;;;;0.20;0.10;;;;;;;;;;4944985;28;20541;-87
2023/12/08 06:49:25;;;;;;;0.20;0.10;;;;;;;;;;4931852;28;20133;-88
2023/12/08 06:51:51;;;;;;;0.20;0.10;;;;;;;;;;4931607;28;20527;-87
2023/12/08 06:54:19;;;;;;;0.40;0.30;;;;;;;;;;4945590;28;20076;-86
2023/12/08 06:56:45;;;;;;;0.20;0.10;;;;;;;;;;4938112;28;20125;-86
2023/12/08 06:59:11;;;;;;;0.20;0.10;;;;;;;;;;4932948;28;22397;-89
2023/12/08 07:01:38;;;;;;;0.20;0.10;;;;;;;;;;4946195;22;20057;-85
2023/12/08 07:04:04;;;;;;;0.20;0.10;;;;;;;;;;4931166;28;20084;-82
2023/12/08 07:06:30;;;;;;;0.20;0.10;;;;;;;;;;4945843;28;20034;-84
2023/12/08 07:08:56;;;;;;;0.20;0.10;;;;;;;;;;4947934;28;20066;-86
2023/12/08 07:11:22;;;;;;;0.20;0.10;;;;;;;;;;4949281;28;20519;-84
2023/12/08 07:13:49;;;;;;;0.20;0.10;;;;;;;;;;4928270;29;20451;-85
2023/12/08 07:16:15;;;;;;;0.20;0.10;;;;;;;;;;4929507;28;20039;-84
2023/12/08 07:18:41;;;;;;;0.20;0.10;;;;;;;;;;4910954;28;20665;-82
2023/12/08 07:21:07;;;;;;;0.20;0.10;;;;;;;;;;4915089;28;20043;-83
2023/12/08 07:23:33;;;;;;;0.32;0.30;;;;;;;;;;4931871;29;20043;-85
2023/12/08 07:26:00;;;;;;;0.20;0.10;;;;;;;;;;4923554;29;20572;-84
2023/12/08 07:28:26;;;;;;;0.20;0.10;;;;;;;;;;4915101;29;20046;-84
2023/12/08 07:30:52;;;;;;;0.20;0.10;;;;;;;;;;4929223;29;20059;-83
2023/12/08 07:33:18;;;;;;;0.20;0.10;;;;;;;;;;4914636;28;20059;-83
2023/12/08 07:35:44;;;;;;;0.20;0.10;;;;;;;;;;4934663;28;20428;-87
2023/12/08 07:38:10;;;;;;;0.20;0.20;;;;;;;;;;4933406;28;20096;-86
2023/12/08 07:40:36;;;;;;;0.20;0.15;;;;;;;;;;4933595;28;20510;-85
2023/12/08 07:43:02;;;;;;;0.20;0.10;;;;;;;;;;4932433;28;20760;-83
2023/12/08 07:45:28;;;;;;;0.30;0.30;;;;;;;;;;4930141;29;20102;-84
2023/12/08 07:47:54;;;;;;;0.20;0.10;;;;;;;;;;4931471;28;20043;-84
2023/12/08 07:50:20;;;;;;;0.20;0.10;;;;;;;;;;4932049;29;20303;-83
2023/12/08 07:52:46;;;;;;;0.20;0.10;;;;;;;;;;4914394;29;20508;-83
2023/12/08 07:55:12;;;;;;;0.20;0.10;;;;;;;;;;4932631;28;20055;-83
2023/12/08 07:57:38;;;;;;;0.57;0.57;;;;;;;;;;4933867;29;20492;-85
2023/12/08 08:00:06;;;;;;;0.20;0.10;;;;;;;;;;4912234;29;20046;-84
2023/12/08 08:02:32;;;;;;;0.20;0.10;;;;;;;;;;4931087;29;20411;-84
2023/12/08 08:04:58;;;;;;;0.20;0.05;;;;;;;;;;4933732;29;20102;-84
2023/12/08 08:07:24;;;;;;;0.20;0.10;;;;;;;;;;4918734;29;20520;-82
2023/12/08 08:09:50;;;;;;;0.20;0.00;;;;;;;;;;4937041;28;20126;-85
2023/12/08 08:12:17;;;;;;;0.55;0.25;;;;;;;;;;4911573;29;20035;-83
2023/12/08 08:14:43;;;;;;;0.20;0.00;;;;;;;;;;4933023;28;20453;-83
2023/12/08 08:17:09;;;;;;;0.90;0.88;;;;;;;;;;4926248;29;20043;-83
2023/12/08 08:19:35;;;;;;;0.20;0.10;;;;;;;;;;4934302;28;20462;-85
2023/12/08 08:22:01;;;;;;;0.20;0.10;;;;;;;;;;4914109;29;20393;-82
2023/12/08 08:24:27;;;;;;;0.20;0.10;;;;;;;;;;4916184;29;20050;-81
2023/12/08 08:26:54;;;;;;;0.20;0.20;;;;;;;;;;4933630;29;20130;-84
2023/12/08 08:29:20;;;;;;;0.20;0.10;;;;;;;;;;4919706;29;20047;-83
2023/12/08 08:31:46;;;;;;;0.20;0.10;;;;;;;;;;4932921;28;20043;-83
2023/12/08 08:34:12;;;;;;;0.20;0.10;;;;;;;;;;4932372;29;20047;-83
2023/12/08 08:36:38;;;;;;;0.20;0.10;;;;;;;;;;4919849;28;20082;-84
2023/12/08 08:39:04;;;;;;;0.20;0.10;;;;;;;;;;4915072;29;20094;-84
2023/12/08 08:41:30;;;;;;;0.20;0.10;;;;;;;;;;4915487;29;20075;-85
2023/12/08 08:43:56;;;;;;;0.20;0.10;;;;;;;;;;4915429;29;20054;-84
2023/12/08 08:46:22;;;;;;;0.20;0.10;;;;;;;;;;4931649;29;20054;-83
2023/12/08 08:48:48;;;;;;;0.20;0.10;;;;;;;;;;4916287;28;20117;-84
2023/12/08 08:51:16;;;;;;;0.20;0.08;;;;;;;;;;4914241;29;20464;-82
2023/12/08 08:53:42;;;;;;;0.47;0.38;;;;;;;;;;4918127;29;20047;-83
2023/12/08 08:56:08;;;;;;;0.22;0.15;;;;;;;;;;4932572;29;20035;-84
2023/12/08 08:58:34;;;;;;;0.20;0.10;;;;;;;;;;4916610;29;20039;-85
2023/12/08 09:01:00;;;;;;;0.20;0.10;;;;;;;;;;4929832;28;20062;-81
2023/12/08 09:03:26;;;;;;;0.20;0.00;;;;;;;;;;4930481;29;20074;-84
2023/12/08 09:05:52;;;;;;;0.20;0.10;;;;;;;;;;4911194;28;20043;-86
2023/12/08 09:08:18;;;;;;;0.20;0.10;;;;;;;;;;4935831;28;20043;-85
2023/12/08 09:10:45;;;;;;;0.30;0.30;;;;;;;;;;4929490;28;20047;-85
2023/12/08 09:13:12;;;;;;;0.20;0.10;;;;;;;;;;4930458;29;20039;-85
2023/12/08 09:15:38;;;;;;;2.20;0.57;;;;;;;;;;4916862;29;20047;-86
2023/12/08 09:18:05;;;;;;;0.25;0.17;;;;;;;;;;4914625;29;20079;-84
2023/12/08 09:20:31;;;;;;;0.20;0.10;;;;;;;;;;4930132;29;20500;-82
2023/12/08 09:22:57;;;;;;;0.20;0.10;;;;;;;;;;4918966;28;20046;-85
2023/12/08 09:25:23;;;;;;;0.20;0.05;;;;;;;;;;4920241;29;20118;-86
2023/12/08 09:27:49;;;;;;;0.32;0.20;;;;;;;;;;4918609;29;20031;-85
2023/12/08 09:30:15;;;;;;;0.25;0.25;;;;;;;;;;4950382;28;20062;-83
2023/12/08 09:32:42;;;;;;;0.25;0.15;;;;;;;;;;4933392;29;20297;-84
2023/12/08 09:35:08;;;;;;;0.20;0.10;;;;;;;;;;4934425;28;20132;-84
2023/12/08 09:37:34;;;;;;;0.20;0.10;;;;;;;;;;4928150;29;20125;-82
2023/12/08 09:40:00;;;;;;;0.20;0.10;;;;;;;;;;4914282;29;20131;-84
2023/12/08 09:42:36;;;;;;;0.20;0.10;;;;;;;;;;4936210;29;20043;-84
2023/12/08 09:45:04;;;;;;;0.20;0.10;;;;;;;;;;4934050;28;20043;-85
2023/12/08 09:47:33;;;;;;;0.20;0.10;;;;;;;;;;4933910;29;20050;-84
2023/12/08 09:50:01;;;;;;;0.20;0.10;;;;;;;;;;4932238;29;20039;-83
2023/12/08 09:52:29;;;;;;;0.20;0.10;;;;;;;;;;4916236;29;20397;-83
2023/12/08 09:54:56;;;;;;;0.20;0.00;;;;;;;;;;4926764;28;20043;-84
2023/12/08 09:57:22;;;;;;;0.20;0.10;;;;;;;;;;4915094;29;20039;-84
2023/12/08 09:59:51;;;;;;;0.20;0.10;;;;;;;;;;4915250;29;20047;-83
2023/12/08 10:02:18;;;;;;;0.47;0.30;;;;;;;;;;4940593;28;20043;-84
2023/12/08 10:04:44;;;;;;;0.20;0.10;;;;;;;;;;4927590;29;20500;-83
2023/12/08 10:07:11;;;;;;;0.20;0.10;;;;;;;;;;4927643;29;20047;-83
2023/12/08 10:09:37;;;;;;;0.20;0.10;;;;;;;;;;4930782;29;20154;-83
2023/12/08 10:12:03;;;;;;;0.20;0.00;;;;;;;;;;4911488;29;20046;-84
2023/12/08 10:14:31;;;;;;;0.32;0.28;;;;;;;;;;4930259;29;20043;-83
2023/12/08 10:16:57;;;;;;;0.20;0.10;;;;;;;;;;4910481;29;20544;-83
2023/12/08 10:19:24;;;;;;;0.20;0.10;;;;;;;;;;4912704;28;20035;-82
2023/12/08 10:22:00;;;;;;;0.45;0.30;;;;;;;;;;4929738;28;20496;-83
2023/12/08 10:24:30;;;;;;;0.20;0.10;;;;;;;;;;4925219;29;20042;-84
2023/12/08 10:27:00;;;;;;;0.20;0.10;;;;;;;;;;4945215;28;20050;-82
2023/12/08 10:29:32;;;;;;;0.20;0.10;;;;;;;;;;4927356;28;20035;-84
2023/12/08 10:31:58;;;;;;;0.20;0.10;;;;;;;;;;4926855;29;20187;-84
2023/12/08 10:34:25;;;;;;;0.20;0.10;;;;;;;;;;4914335;29;20047;-84
2023/12/08 10:36:52;;;;;;;0.20;0.10;;;;;;;;;;4928653;28;20496;-84
2023/12/08 10:39:19;;;;;;;0.20;0.10;;;;;;;;;;4912267;28;20058;-84
2023/12/08 10:41:48;;;;;;;0.20;0.15;;;;;;;;;;4914369;29;20116;-86
2023/12/08 10:44:14;;;;;;;0.20;0.20;;;;;;;;;;4931291;28;20109;-83
2023/12/08 10:46:39;;;;;;;0.20;0.10;;;;;;;;;;4930601;29;20039;-83
2023/12/08 10:49:08;;;;;;;0.20;0.10;;;;;;;;;;4913265;28;20586;-83
2023/12/08 10:51:35;;;;;;;0.38;0.38;;;;;;;;;;4928468;28;20273;-83
2023/12/08 10:54:01;;;;;;;0.20;0.10;;;;;;;;;;4931959;28;20507;-83
2023/12/08 10:56:27;;;;;;;0.55;0.52;;;;;;;;;;4913316;28;20456;-83
2023/12/08 10:58:59;;;;;;;1.13;1.10;;;;;;;;;;4933159;29;20041;-83
2023/12/08 11:01:26;;;;;;;0.20;0.00;;;;;;;;;;4927056;29;20503;-83
2023/12/08 11:03:54;;;;;;;0.20;0.00;;;;;;;;;;4927895;29;20044;-81
2023/12/08 11:06:30;;;;;;;0.28;0.22;;;;;;;;;;4930714;29;20504;-83
2023/12/08 11:08:58;;;;;;;0.20;0.10;;;;;;;;;;4930219;29;20054;-82
2023/12/08 11:11:26;;;;;;;0.20;0.10;;;;;;;;;;4933060;29;20125;-82
2023/12/08 11:13:56;;;;;;;0.20;0.10;;;;;;;;;;4932961;29;20452;-82
2023/12/08 11:16:22;;;;;;;0.20;0.10;;;;;;;;;;4927529;29;20621;-85
2023/12/08 11:18:50;;;;;;;0.20;0.10;;;;;;;;;;4933805;28;20039;-83
2023/12/08 11:21:18;;;;;;;0.20;0.10;;;;;;;;;;4928535;28;20047;-83
2023/12/08 11:23:44;;;;;;;0.30;0.25;;;;;;;;;;4918221;29;20050;-84
2023/12/08 11:26:14;;;;;;;0.20;0.10;;;;;;;;;;4913970;28;20047;-83
2023/12/08 11:28:46;;;;;;;0.20;0.10;;;;;;;;;;4934693;29;20418;-84
2023/12/08 11:31:18;;;;;;;0.20;0.10;;;;;;;;;;4935067;28;20134;-84
2023/12/08 11:37:02;;;;;;;0.20;0.00;;;;;;;;;;4932345;28;20043;-85
2023/12/08 11:39:33;;;;;;;0.20;0.10;;;;;;;;;;4934950;29;20035;-86
2023/12/08 11:42:08;;;;;;;0.20;0.00;;;;;;;;;;4919009;28;20059;-87
2023/12/08 11:44:58;;;;;;;0.73;0.50;;;;;;;;;;4926572;29;21449;-85
2023/12/08 11:47:38;;;;;;;0.20;0.00;;;;;;;;;;4945699;28;20056;-86
2023/12/08 11:53:04;;;;;;;0.20;0.10;;;;;;;;;;5010038;22;20420;-86
2023/12/08 11:55:51;;;;;;;0.20;0.10;;;;;;;;;;4895246;29;20059;-86
2023/12/08 11:58:36;;;;;;;0.20;0.10;;;;;;;;;;4897967;29;20047;-85
2023/12/08 12:01:15;;;;;;;0.20;0.00;;;;;;;;;;4897564;29;20054;-85
2023/12/08 12:04:02;;;;;;;0.20;0.10;;;;;;;;;;4877289;29;20460;-84
2023/12/08 12:06:30;;;;;;;0.20;0.10;;;;;;;;;;4878586;29;20529;-83
2023/12/08 12:09:04;;;;;;;0.20;0.10;;;;;;;;;;4861227;29;20529;-84
2023/12/08 12:11:33;;;;;;;0.20;0.10;;;;;;;;;;4891158;29;20044;-84
2023/12/08 12:14:04;;;;;;;0.30;0.25;;;;;;;;;;4877146;29;20095;-84
2023/12/08 12:16:30;;;;;;;0.20;0.10;;;;;;;;;;4889210;29;20044;-84
2023/12/08 12:18:57;;;;;;;0.30;0.20;;;;;;;;;;4877521;29;20076;-83
2023/12/08 12:21:23;;;;;;;0.20;0.10;;;;;;;;;;4872410;29;20576;-83
2023/12/08 12:23:49;;;;;;;0.20;0.20;;;;;;;;;;4878872;29;20048;-83
2023/12/08 12:26:20;;;;;;;0.20;0.10;;;;;;;;;;4886732;29;20130;-82
2023/12/08 12:28:47;;;;;;;0.30;0.30;;;;;;;;;;4878117;29;20132;-81
2023/12/08 12:31:14;;;;;;;0.20;0.10;;;;;;;;;;4896532;29;20052;-83
2023/12/08 12:33:40;;;;;;;0.80;0.65;;;;;;;;;;4893717;29;20040;-83
2023/12/08 12:36:07;;;;;;;0.50;0.30;;;;;;;;;;4878742;29;20032;-83
2023/12/08 12:38:33;;;;;;;0.90;0.55;;;;;;;;;;4868820;29;20094;-83
2023/12/08 12:41:19;;;;;;;0.20;0.10;;;;;;;;;;4871724;29;20131;-83
2023/12/08 12:43:45;;;;;;;0.20;0.10;;;;;;;;;;4872259;29;20432;-82
2023/12/08 12:46:12;;;;;;;0.25;0.25;;;;;;;;;;4875249;29;20051;-82
2023/12/08 12:48:38;;;;;;;0.20;0.00;;;;;;;;;;4890742;29;20539;-81
2023/12/08 12:51:05;;;;;;;0.20;0.20;;;;;;;;;;4882106;29;20032;-83
2023/12/08 12:53:31;;;;;;;0.40;0.40;;;;;;;;;;4873688;29;20044;-83
2023/12/08 12:56:06;;;;;;;0.20;0.10;;;;;;;;;;4875329;29;20071;-81
2023/12/08 12:58:36;;;;;;;0.22;0.15;;;;;;;;;;4870246;29;20036;-82
2023/12/08 13:01:10;;;;;;;0.20;0.20;;;;;;;;;;4870397;29;20798;-83
2023/12/08 13:03:36;;;;;;;0.20;0.15;;;;;;;;;;4872716;29;20044;-82
2023/12/08 13:06:06;;;;;;;0.20;0.10;;;;;;;;;;4868517;29;20044;-82
2023/12/08 13:08:42;;;;;;;0.30;0.30;;;;;;;;;;4875589;29;20039;-82
2023/12/08 13:11:08;;;;;;;0.20;0.10;;;;;;;;;;4876175;29;20040;-81
2023/12/08 13:13:36;;;;;;;0.20;0.10;;;;;;;;;;4885132;29;20040;-80
2023/12/08 13:16:02;;;;;;;0.20;0.10;;;;;;;;;;4888848;29;20115;-82
2023/12/08 13:18:28;;;;;;;0.20;0.10;;;;;;;;;;4871197;29;20037;-82
2023/12/08 13:20:54;;;;;;;0.20;0.10;;;;;;;;;;4887949;29;20124;-82
2023/12/08 13:23:20;;;;;;;0.30;0.20;;;;;;;;;;4871851;29;20754;-82
2023/12/08 13:25:46;;;;;;;0.20;0.10;;;;;;;;;;4876380;29;20036;-83
2023/12/08 13:28:12;;;;;;;0.60;0.47;;;;;;;;;;4872429;29;20078;-81
2023/12/08 13:30:38;;;;;;;0.20;0.10;;;;;;;;;;4872369;29;20067;-81
2023/12/08 13:33:05;;;;;;;0.20;0.10;;;;;;;;;;4870993;29;20471;-82
2023/12/08 13:35:31;;;;;;;0.20;0.10;;;;;;;;;;4905053;29;20036;-81
2023/12/08 13:37:57;;;;;;;0.20;0.10;;;;;;;;;;4873010;29;20103;-81
2023/12/08 13:40:27;;;;;;;0.20;0.10;;;;;;;;;;4878617;29;20075;-82
2023/12/08 13:42:53;;;;;;;0.20;0.10;;;;;;;;;;4873897;29;20040;-81
2023/12/08 13:45:19;;;;;;;0.30;0.30;;;;;;;;;;4873061;29;20110;-82
2023/12/08 13:47:45;;;;;;;0.20;0.10;;;;;;;;;;4888117;29;20068;-82
2023/12/08 13:50:12;;;;;;;0.20;0.10;;;;;;;;;;4873441;29;20450;-82
2023/12/08 13:52:38;;;;;;;0.20;0.10;;;;;;;;;;4883074;29;20043;-83
2023/12/08 13:55:04;;;;;;;0.20;0.10;;;;;;;;;;4933228;23;20563;-84
2023/12/08 13:57:30;;;;;;;0.40;0.40;;;;;;;;;;4925027;29;20437;-87
2023/12/08 13:59:56;;;;;;;0.20;0.10;;;;;;;;;;4915763;29;20043;-87
2023/12/08 14:02:22;;;;;;;0.20;0.10;;;;;;;;;;4919252;29;20462;-86
2023/12/08 14:04:48;;;;;;;0.20;0.10;;;;;;;;;;4913306;28;20077;-84
2023/12/08 14:07:25;;;;;;;1.92;0.28;;;;;;;;;;4938296;28;20058;-87
2023/12/08 14:09:53;;;;;;;0.20;0.10;;;;;;;;;;4941327;28;20050;-86
2023/12/08 14:12:19;;;;;;;3.83;0.57;;;;;;;;;;4941117;28;20412;-85
2023/12/08 14:14:45;;;;;;;0.20;0.10;;;;;;;;;;4946853;28;20404;-85
2023/12/08 14:17:14;;;;;;;0.20;0.10;;;;;;;;;;4921210;29;20575;-86
2023/12/08 14:19:40;;;;;;;0.20;0.10;;;;;;;;;;4940826;28;20039;-86
2023/12/08 14:22:06;;;;;;;0.25;0.25;;;;;;;;;;4944611;28;20440;-88
2023/12/08 14:24:32;;;;;;;0.57;0.38;;;;;;;;;;4932066;29;20040;-86
2023/12/08 14:26:58;;;;;;;0.20;0.10;;;;;;;;;;4931809;28;20130;-86
2023/12/08 14:29:24;;;;;;;0.20;0.20;;;;;;;;;;4931656;29;20126;-85
2023/12/08 14:31:50;;;;;;;0.20;0.10;;;;;;;;;;4944387;28;20655;-87
2023/12/08 14:34:16;;;;;;;0.20;0.10;;;;;;;;;;4944422;28;20047;-86
2023/12/08 14:36:42;;;;;;;0.20;0.10;;;;;;;;;;4927262;29;20047;-86
2023/12/08 14:39:10;;;;;;;0.20;0.10;;;;;;;;;;4925605;28;20062;-86
2023/12/08 14:41:36;;;;;;;0.20;0.10;;;;;;;;;;4952662;28;20043;-87
2023/12/08 14:44:02;;;;;;;0.20;0.10;;;;;;;;;;4924086;28;20043;-86
2023/12/08 14:46:28;;;;;;;0.20;0.10;;;;;;;;;;4944933;28;20047;-86
2023/12/08 14:48:54;;;;;;;0.20;0.10;;;;;;;;;;4941919;28;20527;-86